Time;durP1;ratioP1;P1;durP2;ratioP2;P2;SDS_P1;SDS_P2;PMS_P1;PMS_P2;Temp;Humidity;BMP_temperature;BMP_pressure;BME280_temperature;BME280_humidity;BME280_pressure;Samples;Min_cycle;Max_cycle;Signal;HPM_P1;HPM_P2
2021/03/26 00:00:12;;;;;;;49.03;44.20;;;;;;;;;;5055535;28;20421;-77
2021/03/26 00:02:39;;;;;;;46.40;41.90;;;;;;;;;;5054706;28;20861;-77
2021/03/26 00:05:16;;;;;;;48.57;43.37;;;;;;;;;;5056012;28;20482;-76
2021/03/26 00:07:43;;;;;;;47.63;42.73;;;;;;;;;;5055781;28;20442;-77
2021/03/26 00:10:12;;;;;;;46.93;42.43;;;;;;;;;;5054967;28;20441;-77
2021/03/26 00:12:39;;;;;;;46.73;42.23;;;;;;;;;;5054824;28;20435;-77
2021/03/26 00:15:07;;;;;;;50.10;44.73;;;;;;;;;;5054654;28;20446;-77
2021/03/26 00:17:34;;;;;;;53.97;46.40;;;;;;;;;;5055953;28;20859;-77
2021/03/26 00:20:01;;;;;;;47.70;42.80;;;;;;;;;;5055593;28;20534;-77
2021/03/26 00:22:28;;;;;;;60.10;44.70;;;;;;;;;;5053545;28;20443;-77
2021/03/26 00:24:55;;;;;;;49.33;44.07;;;;;;;;;;5055704;28;20404;-77
2021/03/26 00:27:23;;;;;;;47.90;43.07;;;;;;;;;;5057023;28;20919;-77
2021/03/26 00:29:51;;;;;;;46.50;42.00;;;;;;;;;;5056269;28;20472;-76
2021/03/26 00:32:18;;;;;;;49.43;44.30;;;;;;;;;;5055446;28;20426;-76
2021/03/26 00:34:45;;;;;;;47.30;42.50;;;;;;;;;;5055837;28;20462;-76
2021/03/26 00:37:12;;;;;;;47.77;43.07;;;;;;;;;;5055402;28;20522;-78
2021/03/26 00:39:38;;;;;;;47.23;42.57;;;;;;;;;;5056012;28;20417;-77
2021/03/26 00:42:06;;;;;;;48.23;43.33;;;;;;;;;;5056934;28;20430;-77
2021/03/26 00:44:34;;;;;;;52.50;46.87;;;;;;;;;;5056051;28;20921;-77
2021/03/26 00:47:01;;;;;;;48.90;43.90;;;;;;;;;;5056516;28;20891;-77
2021/03/26 00:49:28;;;;;;;48.67;43.67;;;;;;;;;;5056991;28;20400;-77
2021/03/26 00:51:55;;;;;;;47.93;42.93;;;;;;;;;;5057501;28;20503;-76
2021/03/26 00:57:04;;;;;;;46.73;42.10;;;;;;;;;;5068757;28;20908;-75
2021/03/26 00:59:31;;;;;;;50.27;44.97;;;;;;;;;;5065720;28;20450;-76
2021/03/26 01:02:00;;;;;;;46.20;41.50;;;;;;;;;;5064048;28;20816;-76
2021/03/26 01:04:27;;;;;;;46.10;41.20;;;;;;;;;;5062817;28;20845;-76
2021/03/26 01:06:56;;;;;;;46.65;42.20;;;;;;;;;;5062480;28;20417;-75
2021/03/26 01:09:23;;;;;;;47.10;42.20;;;;;;;;;;5061735;28;20258;-75
2021/03/26 01:11:50;;;;;;;48.25;43.33;;;;;;;;;;5062720;28;20482;-76
2021/03/26 01:14:22;;;;;;;49.17;43.97;;;;;;;;;;5062229;28;20653;-75
2021/03/26 01:16:55;;;;;;;46.15;41.25;;;;;;;;;;5065258;28;20842;-74
2021/03/26 01:19:26;;;;;;;46.80;42.10;;;;;;;;;;5064630;28;20275;-75
2021/03/26 01:21:53;;;;;;;49.47;44.07;;;;;;;;;;5064078;28;20420;-75
2021/03/26 01:24:23;;;;;;;50.20;44.90;;;;;;;;;;5060954;28;20421;-75
2021/03/26 01:26:50;;;;;;;49.20;43.87;;;;;;;;;;5060232;28;20207;-77
2021/03/26 01:29:18;;;;;;;51.63;45.87;;;;;;;;;;5060917;28;20453;-75
2021/03/26 01:31:45;;;;;;;48.77;43.77;;;;;;;;;;5060884;28;20437;-76
2021/03/26 01:34:11;;;;;;;48.30;43.58;;;;;;;;;;5061978;28;20420;-76
2021/03/26 01:36:40;;;;;;;45.87;41.30;;;;;;;;;;5060276;28;20573;-76
2021/03/26 01:39:08;;;;;;;47.50;42.83;;;;;;;;;;5061421;28;20420;-75
2021/03/26 01:41:39;;;;;;;47.80;43.00;;;;;;;;;;5061329;28;20197;-77
2021/03/26 01:44:09;;;;;;;47.97;43.23;;;;;;;;;;5059839;28;20502;-76
2021/03/26 01:46:40;;;;;;;49.78;44.38;;;;;;;;;;5060340;28;20428;-76
2021/03/26 01:49:09;;;;;;;49.08;44.03;;;;;;;;;;5060389;28;20200;-76
2021/03/26 01:51:37;;;;;;;47.17;42.20;;;;;;;;;;5062104;28;20657;-76
2021/03/26 01:54:09;;;;;;;53.50;44.60;;;;;;;;;;5060098;28;20424;-76
2021/03/26 01:56:36;;;;;;;57.30;45.03;;;;;;;;;;5063335;28;20451;-76
2021/03/26 01:59:04;;;;;;;46.87;42.27;;;;;;;;;;5060174;28;20705;-77
2021/03/26 02:01:35;;;;;;;51.83;46.43;;;;;;;;;;5059308;28;20416;-77
2021/03/26 02:04:04;;;;;;;49.67;44.33;;;;;;;;;;5058572;28;20446;-76
2021/03/26 02:06:32;;;;;;;50.00;44.80;;;;;;;;;;5057818;28;20406;-76
2021/03/26 02:09:01;;;;;;;52.58;46.95;;;;;;;;;;5059001;28;20427;-76
2021/03/26 02:11:31;;;;;;;52.50;47.10;;;;;;;;;;5058784;28;20287;-76
2021/03/26 02:14:01;;;;;;;53.80;48.00;;;;;;;;;;5057839;28;20458;-76
2021/03/26 02:16:31;;;;;;;52.73;47.07;;;;;;;;;;5058198;28;20443;-77
2021/03/26 02:18:58;;;;;;;51.20;45.50;;;;;;;;;;5057250;28;20469;-76
2021/03/26 02:21:25;;;;;;;51.38;46.00;;;;;;;;;;5057963;28;20434;-76
2021/03/26 02:23:54;;;;;;;55.37;49.37;;;;;;;;;;5056915;28;20195;-77
2021/03/26 02:26:23;;;;;;;52.47;46.83;;;;;;;;;;5056694;28;20485;-76
2021/03/26 02:28:51;;;;;;;57.50;49.47;;;;;;;;;;5057531;28;20187;-77
2021/03/26 02:31:18;;;;;;;57.22;49.38;;;;;;;;;;5056430;28;20222;-77
2021/03/26 02:33:45;;;;;;;55.20;49.30;;;;;;;;;;5055902;28;20646;-77
2021/03/26 02:36:36;;;;;;;54.75;49.05;;;;;;;;;;5054365;28;20432;-77
2021/03/26 02:39:10;;;;;;;51.22;45.90;;;;;;;;;;5040871;28;20625;-76
2021/03/26 02:41:40;;;;;;;53.17;47.50;;;;;;;;;;5056661;28;20196;-76
2021/03/26 02:44:12;;;;;;;52.13;46.53;;;;;;;;;;5055486;28;20443;-76
2021/03/26 02:46:43;;;;;;;53.07;47.30;;;;;;;;;;5056147;28;20422;-76
2021/03/26 02:49:15;;;;;;;52.30;46.78;;;;;;;;;;5056158;28;20883;-77
2021/03/26 02:51:44;;;;;;;56.37;47.80;;;;;;;;;;5055990;28;20190;-76
2021/03/26 02:54:16;;;;;;;51.53;46.03;;;;;;;;;;5055721;28;20417;-76
2021/03/26 02:56:45;;;;;;;51.27;46.03;;;;;;;;;;5055489;28;20435;-77
2021/03/26 02:59:15;;;;;;;55.63;48.72;;;;;;;;;;5056351;28;20889;-77
2021/03/26 03:01:43;;;;;;;51.72;46.22;;;;;;;;;;5055251;28;20203;-77
2021/03/26 03:04:14;;;;;;;54.70;48.80;;;;;;;;;;5055624;28;20230;-77
2021/03/26 03:06:43;;;;;;;54.87;48.10;;;;;;;;;;5056282;28;20231;-77
2021/03/26 03:09:12;;;;;;;54.80;48.50;;;;;;;;;;5056091;28;20442;-77
2021/03/26 03:11:42;;;;;;;52.75;47.10;;;;;;;;;;5056257;28;20430;-77
2021/03/26 03:14:12;;;;;;;56.83;47.63;;;;;;;;;;5055357;28;20198;-77
2021/03/26 03:16:42;;;;;;;56.23;47.20;;;;;;;;;;5055828;28;20427;-76
2021/03/26 03:19:11;;;;;;;54.83;48.33;;;;;;;;;;5055031;28;20483;-77
2021/03/26 03:21:41;;;;;;;52.92;47.35;;;;;;;;;;5054973;28;20204;-77
2021/03/26 03:24:11;;;;;;;55.80;48.67;;;;;;;;;;5055343;28;20192;-77
2021/03/26 03:26:41;;;;;;;55.65;49.58;;;;;;;;;;5054679;28;20442;-77
2021/03/26 03:29:15;;;;;;;54.58;46.78;;;;;;;;;;5055362;28;20199;-76
2021/03/26 03:31:48;;;;;;;55.20;49.30;;;;;;;;;;5058314;28;20188;-76
2021/03/26 03:34:19;;;;;;;60.20;50.57;;;;;;;;;;5055725;28;20193;-77
2021/03/26 03:36:49;;;;;;;53.72;47.72;;;;;;;;;;5055609;28;20413;-77
2021/03/26 03:39:21;;;;;;;55.00;49.00;;;;;;;;;;5055063;28;20219;-76
2021/03/26 03:41:52;;;;;;;54.58;48.28;;;;;;;;;;5056091;28;20412;-76
2021/03/26 03:44:23;;;;;;;54.53;48.83;;;;;;;;;;5055150;28;20184;-75
2021/03/26 03:46:51;;;;;;;58.38;48.47;;;;;;;;;;5054815;28;20214;-75
2021/03/26 03:49:21;;;;;;;62.08;50.70;;;;;;;;;;5055030;28;20194;-76
2021/03/26 03:51:51;;;;;;;62.72;52.17;;;;;;;;;;5054119;28;20212;-76
2021/03/26 03:54:19;;;;;;;55.20;47.95;;;;;;;;;;5053144;28;20199;-76
2021/03/26 03:56:49;;;;;;;63.72;48.92;;;;;;;;;;5054193;28;20237;-75
2021/03/26 03:59:22;;;;;;;51.55;46.10;;;;;;;;;;5054103;28;20194;-76
2021/03/26 04:01:51;;;;;;;58.60;47.22;;;;;;;;;;5052931;28;20200;-76
2021/03/26 04:04:21;;;;;;;59.42;49.42;;;;;;;;;;5053929;28;20224;-76
2021/03/26 04:06:50;;;;;;;57.88;47.78;;;;;;;;;;5053392;28;20210;-75
2021/03/26 04:09:18;;;;;;;54.00;47.97;;;;;;;;;;5053834;28;20201;-76
2021/03/26 04:11:46;;;;;;;55.38;49.15;;;;;;;;;;5054347;28;20198;-76
2021/03/26 04:14:16;;;;;;;56.58;47.50;;;;;;;;;;5053659;28;20190;-76
2021/03/26 04:16:46;;;;;;;53.25;47.33;;;;;;;;;;5054100;28;20194;-76
2021/03/26 04:19:15;;;;;;;52.35;45.58;;;;;;;;;;5053697;28;20238;-76
2021/03/26 04:21:43;;;;;;;51.70;46.15;;;;;;;;;;5053803;28;20241;-76
2021/03/26 04:24:12;;;;;;;63.15;50.30;;;;;;;;;;5053521;28;20637;-76
2021/03/26 04:26:43;;;;;;;51.67;46.10;;;;;;;;;;5053639;28;20645;-76
2021/03/26 04:29:14;;;;;;;54.75;48.92;;;;;;;;;;5053253;28;20190;-76
2021/03/26 04:31:44;;;;;;;56.75;48.83;;;;;;;;;;5053431;28;20591;-76
2021/03/26 04:34:12;;;;;;;51.53;45.95;;;;;;;;;;5053666;28;20199;-76
2021/03/26 04:36:47;;;;;;;52.78;47.08;;;;;;;;;;5053602;28;20272;-76
2021/03/26 04:39:17;;;;;;;50.65;44.00;;;;;;;;;;5054217;28;20220;-76
2021/03/26 04:41:46;;;;;;;53.30;47.13;;;;;;;;;;5053382;28;20245;-76
2021/03/26 04:44:14;;;;;;;53.80;45.65;;;;;;;;;;5053737;28;20193;-76
2021/03/26 04:46:47;;;;;;;53.78;46.72;;;;;;;;;;5053719;28;20575;-76
2021/03/26 04:49:17;;;;;;;54.17;45.10;;;;;;;;;;5053736;28;20244;-76
2021/03/26 04:51:46;;;;;;;57.42;46.05;;;;;;;;;;5057011;28;20631;-76
2021/03/26 04:54:15;;;;;;;53.38;46.50;;;;;;;;;;5054643;28;20194;-76
2021/03/26 04:56:44;;;;;;;55.15;47.90;;;;;;;;;;5054276;28;20269;-76
2021/03/26 04:59:12;;;;;;;53.95;47.63;;;;;;;;;;5054365;28;20198;-76
2021/03/26 05:01:49;;;;;;;58.22;48.53;;;;;;;;;;5059395;28;20198;-74
2021/03/26 05:04:21;;;;;;;60.22;47.20;;;;;;;;;;5064018;28;20289;-75
2021/03/26 05:06:51;;;;;;;53.47;46.55;;;;;;;;;;5056624;28;20205;-77
2021/03/26 05:09:23;;;;;;;55.30;47.83;;;;;;;;;;5059713;28;20213;-74
2021/03/26 05:11:53;;;;;;;56.10;48.03;;;;;;;;;;5054385;28;20628;-76
2021/03/26 05:14:23;;;;;;;55.97;46.47;;;;;;;;;;5054748;28;20533;-76
2021/03/26 05:16:53;;;;;;;59.67;50.35;;;;;;;;;;5053264;28;20191;-76
2021/03/26 05:19:23;;;;;;;57.50;49.25;;;;;;;;;;5053353;28;20240;-76
2021/03/26 05:21:54;;;;;;;50.72;45.22;;;;;;;;;;5053094;28;20711;-76
2021/03/26 05:24:23;;;;;;;51.67;46.08;;;;;;;;;;5053503;28;20548;-76
2021/03/26 05:26:50;;;;;;;52.05;46.35;;;;;;;;;;5053430;28;20210;-76
2021/03/26 05:29:17;;;;;;;52.67;47.00;;;;;;;;;;5057732;28;20252;-76
2021/03/26 05:31:46;;;;;;;52.22;46.30;;;;;;;;;;5053295;28;20206;-76
2021/03/26 05:34:16;;;;;;;55.97;44.53;;;;;;;;;;5053295;28;20308;-76
2021/03/26 05:37:01;;;;;;;53.25;45.42;;;;;;;;;;5053349;28;20437;-76
2021/03/26 05:39:30;;;;;;;54.43;46.67;;;;;;;;;;5053111;28;20710;-76
2021/03/26 05:42:21;;;;;;;54.28;44.47;;;;;;;;;;5056236;28;20542;-76
2021/03/26 05:44:53;;;;;;;59.83;45.70;;;;;;;;;;5051619;28;20275;-76
2021/03/26 05:47:28;;;;;;;56.95;47.22;;;;;;;;;;5057710;28;20205;-77
2021/03/26 05:50:03;;;;;;;54.05;45.97;;;;;;;;;;5060970;28;20191;-76
2021/03/26 05:52:45;;;;;;;54.50;46.40;;;;;;;;;;5064348;28;20186;-77
2021/03/26 05:55:30;;;;;;;55.78;46.63;;;;;;;;;;5056378;28;20188;-76
2021/03/26 05:58:05;;;;;;;59.17;49.00;;;;;;;;;;5056041;28;20254;-77
2021/03/26 06:00:51;;;;;;;63.78;50.60;;;;;;;;;;5056446;28;20292;-78
2021/03/26 06:03:29;;;;;;;56.72;50.55;;;;;;;;;;5056644;28;20238;-76
2021/03/26 06:06:04;;;;;;;58.40;48.40;;;;;;;;;;5057208;28;20299;-76
2021/03/26 06:08:52;;;;;;;53.40;45.30;;;;;;;;;;5056366;28;20188;-76
2021/03/26 06:11:31;;;;;;;58.03;47.42;;;;;;;;;;5052678;28;20487;-76
2021/03/26 06:14:06;;;;;;;56.10;46.90;;;;;;;;;;5055933;28;20199;-76
2021/03/26 06:16:52;;;;;;;51.58;45.50;;;;;;;;;;5059038;28;20450;-80
2021/03/26 06:19:37;;;;;;;54.00;47.87;;;;;;;;;;5057529;28;20239;-75
2021/03/26 06:22:19;;;;;;;52.88;46.38;;;;;;;;;;5059844;28;20426;-76
2021/03/26 06:24:55;;;;;;;52.72;47.03;;;;;;;;;;5054625;28;20623;-76
2021/03/26 06:27:28;;;;;;;57.30;48.50;;;;;;;;;;5055824;28;20195;-76
2021/03/26 06:30:11;;;;;;;57.92;46.80;;;;;;;;;;5055802;28;20565;-75
2021/03/26 06:33:03;;;;;;;54.25;47.08;;;;;;;;;;5054421;28;20240;-76
2021/03/26 06:35:47;;;;;;;54.90;48.33;;;;;;;;;;5055396;28;20199;-76
2021/03/26 06:38:34;;;;;;;58.58;50.92;;;;;;;;;;5055693;28;20223;-76
2021/03/26 06:41:07;;;;;;;56.65;47.42;;;;;;;;;;5030617;28;20245;-76
2021/03/26 06:43:48;;;;;;;56.75;48.58;;;;;;;;;;5055436;28;20232;-75
2021/03/26 06:46:24;;;;;;;55.58;47.08;;;;;;;;;;5055633;28;20192;-76
2021/03/26 06:48:55;;;;;;;54.67;47.30;;;;;;;;;;5054269;28;20199;-76
2021/03/26 06:51:37;;;;;;;56.07;49.60;;;;;;;;;;5055159;28;20439;-75
2021/03/26 06:54:23;;;;;;;55.20;47.92;;;;;;;;;;5052486;28;20429;-76
2021/03/26 06:57:05;;;;;;;55.15;48.80;;;;;;;;;;5055327;28;20188;-76
2021/03/26 06:59:38;;;;;;;56.10;48.77;;;;;;;;;;5053527;28;20213;-76
2021/03/26 07:02:13;;;;;;;58.33;49.57;;;;;;;;;;5055538;28;20480;-76
2021/03/26 07:05:03;;;;;;;54.45;46.35;;;;;;;;;;5055137;28;20524;-76
2021/03/26 07:07:47;;;;;;;62.83;49.73;;;;;;;;;;5054782;28;20584;-76
2021/03/26 07:10:25;;;;;;;55.67;48.03;;;;;;;;;;5054642;28;20799;-75
2021/03/26 07:13:08;;;;;;;56.70;48.20;;;;;;;;;;5054736;28;20448;-76
2021/03/26 07:15:41;;;;;;;51.37;45.73;;;;;;;;;;5055859;28;20443;-75
2021/03/26 07:18:14;;;;;;;55.60;46.73;;;;;;;;;;5055830;28;21047;-76
2021/03/26 07:20:59;;;;;;;53.43;46.60;;;;;;;;;;5056161;28;20422;-77
2021/03/26 07:23:52;;;;;;;57.67;48.27;;;;;;;;;;5055641;28;20446;-76
2021/03/26 07:26:23;;;;;;;57.03;46.47;;;;;;;;;;5055663;28;20971;-76
2021/03/26 07:28:57;;;;;;;55.00;46.17;;;;;;;;;;5055224;28;20446;-76
2021/03/26 07:31:31;;;;;;;54.60;48.47;;;;;;;;;;5054450;28;20425;-76
2021/03/26 07:34:07;;;;;;;53.67;47.80;;;;;;;;;;5054354;28;20409;-76
2021/03/26 07:36:38;;;;;;;52.70;45.93;;;;;;;;;;5054186;28;20440;-75
2021/03/26 07:39:27;;;;;;;52.77;47.00;;;;;;;;;;5054361;28;20784;-76
2021/03/26 07:42:09;;;;;;;49.10;43.77;;;;;;;;;;5054240;28;20446;-76
2021/03/26 07:44:44;;;;;;;50.10;44.67;;;;;;;;;;5053925;28;20457;-75
2021/03/26 07:47:26;;;;;;;51.20;45.60;;;;;;;;;;5054152;28;20416;-76
2021/03/26 07:50:09;;;;;;;50.23;44.80;;;;;;;;;;5054430;28;20445;-75
2021/03/26 07:52:42;;;;;;;52.57;43.47;;;;;;;;;;5054328;28;20421;-75
2021/03/26 07:55:19;;;;;;;47.80;42.90;;;;;;;;;;5054561;28;20412;-75
2021/03/26 07:58:04;;;;;;;51.37;43.17;;;;;;;;;;5052769;28;20481;-76
2021/03/26 08:00:54;;;;;;;49.70;42.37;;;;;;;;;;5053951;28;20449;-76
2021/03/26 08:03:39;;;;;;;47.30;41.93;;;;;;;;;;5054153;28;20448;-76
2021/03/26 08:06:15;;;;;;;51.43;43.40;;;;;;;;;;5053083;28;20446;-76
2021/03/26 08:08:54;;;;;;;43.43;39.00;;;;;;;;;;5054141;28;20445;-77
2021/03/26 08:11:29;;;;;;;47.70;42.53;;;;;;;;;;5054209;28;20464;-77
2021/03/26 08:14:03;;;;;;;45.83;41.13;;;;;;;;;;5054153;28;20449;-77
2021/03/26 08:16:46;;;;;;;47.00;42.00;;;;;;;;;;5053518;28;20778;-77
2021/03/26 08:19:17;;;;;;;47.37;42.60;;;;;;;;;;5053428;28;20491;-77
2021/03/26 08:21:49;;;;;;;48.03;43.10;;;;;;;;;;5054160;28;20470;-77
2021/03/26 08:24:30;;;;;;;46.57;41.77;;;;;;;;;;5053711;28;20493;-77
2021/03/26 08:27:01;;;;;;;46.20;41.43;;;;;;;;;;5053952;28;20800;-77
2021/03/26 08:29:36;;;;;;;45.07;40.33;;;;;;;;;;5054160;28;20397;-77
2021/03/26 08:32:32;;;;;;;47.33;42.27;;;;;;;;;;5055217;28;20440;-77
2021/03/26 08:35:12;;;;;;;47.33;42.03;;;;;;;;;;5054694;28;20438;-76
2021/03/26 08:37:48;;;;;;;44.97;40.20;;;;;;;;;;5055425;28;20489;-77
2021/03/26 08:40:17;;;;;;;42.07;37.67;;;;;;;;;;5055377;28;20405;-76
2021/03/26 08:42:49;;;;;;;46.03;41.23;;;;;;;;;;5055539;28;20434;-77
2021/03/26 08:45:24;;;;;;;45.57;40.73;;;;;;;;;;5054378;28;20475;-76
2021/03/26 08:47:55;;;;;;;42.53;38.27;;;;;;;;;;5055399;28;20420;-76
2021/03/26 08:50:28;;;;;;;39.67;35.83;;;;;;;;;;5054985;28;20920;-76
2021/03/26 08:53:01;;;;;;;43.73;39.07;;;;;;;;;;5055017;28;20760;-76
2021/03/26 08:55:37;;;;;;;43.00;34.87;;;;;;;;;;5054206;28;20453;-76
2021/03/26 08:58:19;;;;;;;40.60;36.43;;;;;;;;;;5054308;28;20488;-77
2021/03/26 09:01:05;;;;;;;42.00;37.73;;;;;;;;;;5021906;28;20431;-80
2021/03/26 09:03:37;;;;;;;40.57;36.63;;;;;;;;;;5054020;28;20466;-74
2021/03/26 09:06:11;;;;;;;40.97;36.77;;;;;;;;;;5054101;28;20438;-75
2021/03/26 09:08:50;;;;;;;42.10;37.90;;;;;;;;;;5053483;28;20920;-75
2021/03/26 09:11:31;;;;;;;41.73;37.53;;;;;;;;;;5053544;28;20439;-75
2021/03/26 09:14:09;;;;;;;41.73;36.30;;;;;;;;;;5053098;28;20432;-75
2021/03/26 09:16:37;;;;;;;40.20;36.40;;;;;;;;;;5057947;28;20446;-79
2021/03/26 09:19:08;;;;;;;40.07;36.20;;;;;;;;;;5061963;28;20502;-75
2021/03/26 09:21:48;;;;;;;40.57;36.57;;;;;;;;;;5059193;28;20588;-74
2021/03/26 09:24:27;;;;;;;29.67;27.13;;;;;;;;;;5057841;28;20444;-74
2021/03/26 09:26:58;;;;;;;39.17;35.40;;;;;;;;;;5057458;28;20449;-75
2021/03/26 09:29:30;;;;;;;35.53;32.13;;;;;;;;;;5055652;28;20833;-74
2021/03/26 09:32:00;;;;;;;35.33;32.03;;;;;;;;;;5056564;28;20903;-75
2021/03/26 09:34:30;;;;;;;39.33;35.73;;;;;;;;;;5056642;28;20421;-74
2021/03/26 09:37:11;;;;;;;32.70;29.63;;;;;;;;;;5055639;28;20782;-75
2021/03/26 09:39:40;;;;;;;38.73;35.07;;;;;;;;;;5056831;28;20443;-75
2021/03/26 09:42:19;;;;;;;37.60;33.80;;;;;;;;;;5056791;28;20430;-74
2021/03/26 09:44:48;;;;;;;36.90;33.50;;;;;;;;;;5065573;28;20521;-75
2021/03/26 09:47:19;;;;;;;37.20;33.50;;;;;;;;;;5059801;28;20434;-75
2021/03/26 09:49:47;;;;;;;37.67;34.30;;;;;;;;;;5057723;28;20495;-75
2021/03/26 09:52:19;;;;;;;37.33;33.70;;;;;;;;;;5057864;28;20416;-75
2021/03/26 09:54:49;;;;;;;30.90;28.27;;;;;;;;;;5056468;28;20425;-75
2021/03/26 09:57:33;;;;;;;37.67;34.07;;;;;;;;;;5056874;28;20913;-75
2021/03/26 10:00:14;;;;;;;34.33;31.23;;;;;;;;;;5056293;28;20480;-75
2021/03/26 10:02:47;;;;;;;37.53;34.13;;;;;;;;;;5057348;28;20450;-76
2021/03/26 10:05:17;;;;;;;38.00;34.67;;;;;;;;;;5057169;28;20428;-76
2021/03/26 10:07:48;;;;;;;36.10;32.63;;;;;;;;;;5056009;28;20443;-75
2021/03/26 10:13:09;;;;;;;34.93;32.07;;;;;;;;;;5056785;28;20405;-73
2021/03/26 10:15:38;;;;;;;35.67;32.50;;;;;;;;;;5055859;28;20443;-72
2021/03/26 10:18:11;;;;;;;30.87;28.20;;;;;;;;;;5056004;28;20471;-72
2021/03/26 10:20:42;;;;;;;35.27;31.93;;;;;;;;;;5056336;28;20413;-73
2021/03/26 10:23:16;;;;;;;37.20;33.80;;;;;;;;;;5055876;28;20422;-72
2021/03/26 10:25:47;;;;;;;37.80;34.10;;;;;;;;;;5056189;28;20417;-72
2021/03/26 10:28:19;;;;;;;31.23;28.63;;;;;;;;;;5055107;28;20425;-73
2021/03/26 10:30:49;;;;;;;34.13;30.70;;;;;;;;;;5057087;28;20421;-72
2021/03/26 10:33:17;;;;;;;33.20;30.30;;;;;;;;;;5056589;28;20772;-72
2021/03/26 10:35:50;;;;;;;35.10;32.03;;;;;;;;;;5055861;28;21012;-72
2021/03/26 10:38:19;;;;;;;31.83;29.10;;;;;;;;;;5055618;28;20787;-72
2021/03/26 10:40:51;;;;;;;32.67;29.93;;;;;;;;;;5055952;28;20473;-72
2021/03/26 10:43:19;;;;;;;31.30;28.70;;;;;;;;;;5055069;28;20417;-72
2021/03/26 10:45:59;;;;;;;33.33;30.63;;;;;;;;;;5055226;28;20944;-72
2021/03/26 10:48:28;;;;;;;32.30;29.63;;;;;;;;;;5055538;28;20406;-72
2021/03/26 10:51:12;;;;;;;30.53;27.83;;;;;;;;;;5055436;28;20522;-72
2021/03/26 10:53:42;;;;;;;30.30;27.80;;;;;;;;;;5054917;28;20503;-72
2021/03/26 10:56:13;;;;;;;34.53;31.47;;;;;;;;;;5054995;28;20443;-72
2021/03/26 10:58:41;;;;;;;31.43;28.73;;;;;;;;;;5055173;28;20850;-71
2021/03/26 11:01:12;;;;;;;31.47;29.07;;;;;;;;;;5055295;28;20442;-72
2021/03/26 11:03:42;;;;;;;31.67;28.93;;;;;;;;;;5055103;28;20875;-73
2021/03/26 11:06:12;;;;;;;28.43;26.23;;;;;;;;;;5054010;28;20806;-73
2021/03/26 11:08:42;;;;;;;32.27;29.40;;;;;;;;;;5055613;28;20465;-73
2021/03/26 11:11:30;;;;;;;32.93;29.93;;;;;;;;;;5054869;28;20435;-72
2021/03/26 11:14:21;;;;;;;28.73;26.43;;;;;;;;;;5055435;28;20440;-72
2021/03/26 11:16:50;;;;;;;32.07;29.47;;;;;;;;;;5055122;28;20457;-71
2021/03/26 11:19:23;;;;;;;32.93;29.70;;;;;;;;;;5054423;28;20530;-72
2021/03/26 11:21:52;;;;;;;29.53;27.20;;;;;;;;;;5055301;28;20421;-72
2021/03/26 11:24:19;;;;;;;31.77;29.37;;;;;;;;;;5055335;28;20438;-72
2021/03/26 11:26:48;;;;;;;31.20;28.80;;;;;;;;;;5054926;28;20450;-72
2021/03/26 11:29:20;;;;;;;29.77;27.60;;;;;;;;;;5054043;28;20427;-72
2021/03/26 11:31:53;;;;;;;31.57;28.87;;;;;;;;;;5054903;28;20439;-74
2021/03/26 11:34:27;;;;;;;30.73;28.37;;;;;;;;;;5055122;28;20445;-76
2021/03/26 11:36:57;;;;;;;32.20;29.27;;;;;;;;;;5055570;28;20442;-77
2021/03/26 11:39:28;;;;;;;31.20;28.60;;;;;;;;;;5054586;28;20528;-77
2021/03/26 11:41:59;;;;;;;32.67;29.83;;;;;;;;;;5054375;28;20455;-76
2021/03/26 11:44:28;;;;;;;34.03;31.30;;;;;;;;;;5055835;28;20442;-76
2021/03/26 11:46:57;;;;;;;32.43;29.80;;;;;;;;;;5055571;28;20463;-79
2021/03/26 11:49:28;;;;;;;32.67;29.97;;;;;;;;;;5055203;28;20451;-77
2021/03/26 11:51:57;;;;;;;34.00;31.30;;;;;;;;;;5055221;28;20809;-77
2021/03/26 11:54:28;;;;;;;32.97;30.60;;;;;;;;;;5055598;28;20431;-77
2021/03/26 11:57:03;;;;;;;34.53;31.93;;;;;;;;;;5056259;28;20477;-77
2021/03/26 11:59:44;;;;;;;33.93;31.00;;;;;;;;;;5054601;28;20483;-76
2021/03/26 12:02:21;;;;;;;32.20;29.70;;;;;;;;;;5056104;28;20425;-77
2021/03/26 12:04:49;;;;;;;32.90;30.40;;;;;;;;;;5054972;28;20506;-77
2021/03/26 12:07:18;;;;;;;32.50;29.77;;;;;;;;;;5054488;28;20483;-77
2021/03/26 12:09:53;;;;;;;32.93;30.47;;;;;;;;;;5054811;28;20409;-77
2021/03/26 12:12:23;;;;;;;34.00;31.60;;;;;;;;;;5053685;28;20529;-72
2021/03/26 12:14:53;;;;;;;34.30;31.80;;;;;;;;;;5053896;28;20500;-72
2021/03/26 12:17:38;;;;;;;34.33;31.83;;;;;;;;;;5053453;28;20410;-73
2021/03/26 12:20:09;;;;;;;32.93;30.40;;;;;;;;;;5053825;28;20429;-73
2021/03/26 12:22:45;;;;;;;36.33;33.63;;;;;;;;;;5053696;28;20820;-73
2021/03/26 12:25:15;;;;;;;33.43;30.70;;;;;;;;;;5054011;28;20419;-72
2021/03/26 12:27:46;;;;;;;33.27;30.57;;;;;;;;;;5053826;28;20417;-71
2021/03/26 12:30:15;;;;;;;35.53;32.60;;;;;;;;;;5053821;28;20447;-72
2021/03/26 12:32:44;;;;;;;34.13;31.53;;;;;;;;;;5052303;28;20951;-72
2021/03/26 12:35:22;;;;;;;33.37;30.60;;;;;;;;;;5053435;28;20469;-72
2021/03/26 12:37:54;;;;;;;33.10;30.17;;;;;;;;;;5053284;28;20452;-75
2021/03/26 12:40:25;;;;;;;33.87;31.17;;;;;;;;;;5053269;28;20426;-72
2021/03/26 12:42:58;;;;;;;30.43;28.07;;;;;;;;;;5053379;28;20439;-72
2021/03/26 12:45:27;;;;;;;32.87;30.40;;;;;;;;;;5053498;28;20409;-72
2021/03/26 12:47:56;;;;;;;30.63;28.27;;;;;;;;;;5053300;28;20426;-73
2021/03/26 12:50:25;;;;;;;31.00;28.70;;;;;;;;;;5053817;28;20436;-72
2021/03/26 12:52:59;;;;;;;31.90;29.27;;;;;;;;;;5057656;28;20435;-71
2021/03/26 12:55:33;;;;;;;31.37;28.67;;;;;;;;;;5057892;28;20498;-71
2021/03/26 12:58:24;;;;;;;28.97;26.87;;;;;;;;;;5056204;28;20485;-75
2021/03/26 13:00:54;;;;;;;29.03;26.80;;;;;;;;;;5056985;28;21028;-72
2021/03/26 13:03:26;;;;;;;32.00;29.47;;;;;;;;;;5056070;28;20452;-73
2021/03/26 13:05:59;;;;;;;32.13;29.33;;;;;;;;;;5056970;28;20452;-72
2021/03/26 13:08:28;;;;;;;29.40;27.20;;;;;;;;;;5057387;28;20412;-73
2021/03/26 13:10:59;;;;;;;30.30;28.10;;;;;;;;;;5055895;28;20444;-72
2021/03/26 13:13:37;;;;;;;31.30;29.10;;;;;;;;;;5056816;28;20430;-72
2021/03/26 13:16:10;;;;;;;31.07;28.47;;;;;;;;;;5056352;28;20463;-71
2021/03/26 13:18:45;;;;;;;30.20;27.97;;;;;;;;;;5056820;28;20503;-73
2021/03/26 13:21:14;;;;;;;30.43;27.93;;;;;;;;;;5056696;28;20414;-72
2021/03/26 13:23:43;;;;;;;29.83;27.37;;;;;;;;;;5057239;28;20493;-72
2021/03/26 13:26:16;;;;;;;27.77;25.70;;;;;;;;;;5056893;28;20458;-72
2021/03/26 13:28:47;;;;;;;29.87;27.67;;;;;;;;;;5058265;28;20493;-72
2021/03/26 13:31:17;;;;;;;29.70;27.53;;;;;;;;;;5058320;28;20413;-73
2021/03/26 13:33:50;;;;;;;29.60;27.50;;;;;;;;;;5058459;28;20434;-72
2021/03/26 13:36:21;;;;;;;28.97;26.87;;;;;;;;;;5058293;28;20573;-73
2021/03/26 13:39:00;;;;;;;30.00;27.70;;;;;;;;;;5057907;28;20484;-73
2021/03/26 13:41:30;;;;;;;29.00;26.93;;;;;;;;;;5058079;28;20445;-72
2021/03/26 13:44:19;;;;;;;29.83;27.63;;;;;;;;;;5058029;28;20435;-72
2021/03/26 13:46:49;;;;;;;30.30;28.10;;;;;;;;;;5053261;28;20453;-72
2021/03/26 13:49:17;;;;;;;28.17;26.17;;;;;;;;;;5056929;28;20465;-73
2021/03/26 13:51:45;;;;;;;29.63;27.33;;;;;;;;;;5056955;28;20832;-72
2021/03/26 13:54:30;;;;;;;30.00;27.40;;;;;;;;;;5056933;28;20934;-72
2021/03/26 13:56:58;;;;;;;30.50;28.20;;;;;;;;;;5056194;28;20427;-73
2021/03/26 13:59:35;;;;;;;33.03;30.30;;;;;;;;;;5058468;28;20961;-72
2021/03/26 14:02:06;;;;;;;29.63;27.50;;;;;;;;;;5057015;28;20428;-72
2021/03/26 14:04:36;;;;;;;29.57;27.30;;;;;;;;;;5056042;28;20442;-72
2021/03/26 14:07:05;;;;;;;29.90;27.73;;;;;;;;;;5056298;28;20415;-72
2021/03/26 14:09:35;;;;;;;29.57;27.47;;;;;;;;;;5056521;28;20441;-72
2021/03/26 14:12:06;;;;;;;30.07;27.80;;;;;;;;;;5056302;28;20441;-72
2021/03/26 14:14:41;;;;;;;29.63;27.20;;;;;;;;;;5056150;28;20480;-72
2021/03/26 14:17:17;;;;;;;29.17;27.27;;;;;;;;;;5055878;28;20936;-73
2021/03/26 14:19:46;;;;;;;30.37;27.97;;;;;;;;;;5017246;28;20485;-72
2021/03/26 14:22:20;;;;;;;29.80;27.70;;;;;;;;;;5016382;28;20423;-72
2021/03/26 14:24:56;;;;;;;29.23;27.03;;;;;;;;;;5015852;28;20931;-72
2021/03/26 14:27:39;;;;;;;29.93;27.73;;;;;;;;;;5015724;28;20924;-73
2021/03/26 14:30:10;;;;;;;30.13;27.63;;;;;;;;;;5015991;28;20419;-72
2021/03/26 14:32:39;;;;;;;31.23;28.80;;;;;;;;;;5015896;28;20437;-72
2021/03/26 14:35:09;;;;;;;30.17;27.77;;;;;;;;;;5017405;28;20502;-72
2021/03/26 14:37:38;;;;;;;29.60;27.70;;;;;;;;;;5015998;28;20443;-72
2021/03/26 14:40:08;;;;;;;28.07;26.20;;;;;;;;;;5019779;28;20448;-73
2021/03/26 14:42:36;;;;;;;28.33;26.43;;;;;;;;;;5018263;28;20466;-72
2021/03/26 14:45:05;;;;;;;28.37;26.40;;;;;;;;;;5016982;28;20825;-73
2021/03/26 14:47:34;;;;;;;28.50;26.57;;;;;;;;;;5015840;28;20850;-73
2021/03/26 14:50:04;;;;;;;30.30;27.97;;;;;;;;;;5015509;28;20417;-76
2021/03/26 14:52:46;;;;;;;30.23;27.90;;;;;;;;;;5015032;28;20498;-71